Time;durP1;ratioP1;P1;durP2;ratioP2;P2;SDS_P1;SDS_P2;PMS_P1;PMS_P2;Temp;Humidity;BMP_temperature;BMP_pressure;BME280_temperature;BME280_humidity;BME280_pressure;Samples;Min_cycle;Max_cycle;Signal;HPM_P1;HPM_P2
2022/05/08 00:01:59;;;;;;;27.52;12.93;;;;;;;12.49;65.14;99485.05;1716733;83;21005;-76
2022/05/08 00:04:26;;;;;;;40.83;13.60;;;;;;;12.46;66.69;99491.64;1716657;83;20977;-76
2022/05/08 00:06:52;;;;;;;26.12;11.90;;;;;;;12.42;65.05;99484.80;1699705;84;21029;-76
2022/05/08 00:09:19;;;;;;;25.88;11.10;;;;;;;12.39;66.56;99492.69;1688016;85;21037;-75
2022/05/08 00:11:45;;;;;;;20.52;9.20;;;;;;;12.36;67.88;99482.36;1688098;85;21536;-76
2022/05/08 00:14:12;;;;;;;28.55;8.90;;;;;;;12.33;68.04;99483.30;1658847;86;20998;-78
2022/05/08 00:16:38;;;;;;;20.72;8.88;;;;;;;12.32;67.53;99485.48;1670986;85;20975;-76
2022/05/08 00:19:05;;;;;;;19.37;9.03;;;;;;;12.28;66.45;99482.55;1671038;86;21020;-77
2022/05/08 00:21:31;;;;;;;19.62;9.00;;;;;;;12.24;67.25;99474.86;1680052;85;21061;-76
2022/05/08 00:23:58;;;;;;;18.65;8.38;;;;;;;12.21;68.22;99478.38;1671114;85;21015;-76
2022/05/08 00:26:24;;;;;;;22.30;9.63;;;;;;;12.18;67.16;99475.87;1673781;85;21042;-77
2022/05/08 00:28:51;;;;;;;24.43;10.13;;;;;;;12.16;66.63;99476.81;1726002;83;21548;-76
2022/05/08 00:31:17;;;;;;;20.90;9.48;;;;;;;12.11;65.06;99470.39;1691761;84;21029;-76
2022/05/08 00:33:44;;;;;;;20.37;8.20;;;;;;;12.08;67.44;99475.70;1678332;85;21027;-75
2022/05/08 00:36:10;;;;;;;16.70;8.60;;;;;;;12.08;67.69;99486.12;1678446;85;21039;-77
2022/05/08 00:38:36;;;;;;;16.77;8.50;;;;;;;12.08;67.86;99483.06;1678224;85;21007;-77
2022/05/08 00:41:03;;;;;;;15.13;8.63;;;;;;;12.08;68.31;99480.91;1678362;85;21073;-75
2022/05/08 00:43:34;;;;;;;17.02;8.23;;;;;;;12.05;68.67;99475.76;1678356;85;21031;-76
2022/05/08 00:46:03;;;;;;;16.23;7.85;;;;;;;12.08;68.44;99477.84;1678516;85;20991;-75
2022/05/08 00:48:30;;;;;;;17.23;8.43;;;;;;;12.09;68.61;99474.78;1678443;85;20971;-76
2022/05/08 00:50:57;;;;;;;19.92;8.15;;;;;;;12.06;68.15;99480.94;1681222;84;20990;-75
2022/05/08 00:53:27;;;;;;;24.07;10.30;;;;;;;12.05;68.89;99475.30;1705024;84;20975;-75
2022/05/08 00:55:55;;;;;;;21.52;9.65;;;;;;;12.06;69.16;99475.73;1707557;82;21017;-76
2022/05/08 00:58:21;;;;;;;17.32;9.30;;;;;;;12.09;68.74;99469.12;1697762;84;21041;-75
2022/05/08 01:00:48;;;;;;;18.50;8.83;;;;;;;12.11;68.96;99476.91;1687179;84;20967;-76
2022/05/08 01:03:15;;;;;;;15.78;8.35;;;;;;;12.10;68.93;99472.60;1690003;84;21477;-76
2022/05/08 01:05:41;;;;;;;19.37;8.75;;;;;;;12.03;68.41;99477.09;1690275;84;21029;-76
2022/05/08 01:08:11;;;;;;;18.82;8.33;;;;;;;11.98;70.19;99483.30;1660135;86;20992;-75
2022/05/08 01:10:39;;;;;;;17.05;7.92;;;;;;;11.93;69.25;99476.46;1703857;84;20979;-75
2022/05/08 01:13:06;;;;;;;17.98;8.05;;;;;;;11.89;69.03;99488.31;1689813;84;21460;-76
2022/05/08 01:15:46;;;;;;;13.22;7.60;;;;;;;11.85;67.20;99485.34;1690189;84;21049;-76
2022/05/08 01:18:15;;;;;;;14.50;8.03;;;;;;;11.75;68.34;99486.84;1704047;83;21035;-75
2022/05/08 01:20:46;;;;;;;15.00;6.85;;;;;;;11.64;69.22;99494.08;1701801;84;21027;-75
2022/05/08 01:23:19;;;;;;;13.25;7.28;;;;;;;11.55;67.59;99482.55;1690009;85;21536;-74
2022/05/08 01:25:55;;;;;;;13.95;7.37;;;;;;;11.49;69.94;99485.30;1691525;83;21071;-75
2022/05/08 01:28:25;;;;;;;15.30;6.67;;;;;;;11.44;69.93;99482.81;1679892;85;20998;-75
2022/05/08 01:30:54;;;;;;;11.75;6.97;;;;;;;11.39;70.91;99479.89;1679210;85;20998;-75
2022/05/08 01:33:21;;;;;;;14.23;8.03;;;;;;;11.35;70.59;99482.55;1683025;85;21060;-77
2022/05/08 01:35:52;;;;;;;12.47;7.08;;;;;;;11.32;70.75;99491.75;1681665;85;21023;-77
2022/05/08 01:38:23;;;;;;;13.85;6.85;;;;;;;11.30;70.71;99491.34;1683814;85;20995;-75
2022/05/08 01:40:54;;;;;;;13.18;6.37;;;;;;;11.26;71.13;99489.70;1678032;85;21009;-75
2022/05/08 01:43:21;;;;;;;14.38;6.58;;;;;;;11.23;71.57;99488.03;1680447;85;21518;-76
2022/05/08 01:45:48;;;;;;;13.85;6.58;;;;;;;11.22;71.87;99493.27;1681639;85;20985;-75
2022/05/08 01:48:23;;;;;;;15.72;7.60;;;;;;;11.21;70.80;99491.56;1680158;85;20994;-77
2022/05/08 01:50:55;;;;;;;16.02;7.53;;;;;;;11.18;71.38;99487.71;1682041;85;21459;-76
2022/05/08 01:53:31;;;;;;;14.53;7.53;;;;;;;11.17;70.18;99489.47;1680031;85;21034;-76
2022/05/08 01:55:58;;;;;;;12.85;7.50;;;;;;;11.15;71.75;99495.15;1683300;85;20935;-75
2022/05/08 01:58:27;;;;;;;15.03;6.78;;;;;;;11.13;72.02;99494.33;1679845;85;21062;-76
2022/05/08 02:00:56;;;;;;;12.78;6.65;;;;;;;11.12;72.29;99497.37;1680411;85;20995;-75
2022/05/08 02:03:24;;;;;;;14.78;7.00;;;;;;;11.14;73.02;99494.30;1679506;85;21494;-75
2022/05/08 02:05:51;;;;;;;20.20;7.53;;;;;;;11.16;72.39;99500.78;1684028;85;20979;-76
2022/05/08 02:08:18;;;;;;;15.43;6.72;;;;;;;11.18;71.27;99493.80;1684035;85;20995;-75
2022/05/08 02:10:47;;;;;;;16.55;7.25;;;;;;;11.15;71.66;99484.28;1683682;85;21027;-76
2022/05/08 02:13:14;;;;;;;18.40;7.17;;;;;;;11.18;72.06;99489.89;1675160;85;21040;-75
2022/05/08 02:15:40;;;;;;;13.48;6.33;;;;;;;11.21;71.92;99488.96;1683872;85;21459;-76
2022/05/08 02:18:09;;;;;;;17.15;7.20;;;;;;;11.22;71.89;99498.05;1682588;85;21499;-75
2022/05/08 02:20:39;;;;;;;20.50;6.87;;;;;;;11.21;71.39;99504.13;1683689;85;20948;-75
2022/05/08 02:23:07;;;;;;;13.45;7.15;;;;;;;11.22;72.25;99504.97;1677530;85;21000;-77
2022/05/08 02:25:36;;;;;;;17.62;8.40;;;;;;;11.22;72.33;99503.25;1683698;85;21018;-75
2022/05/08 02:28:03;;;;;;;12.03;7.45;;;;;;;11.20;72.59;99502.84;1692714;82;21027;-76
2022/05/08 02:30:30;;;;;;;16.75;7.87;;;;;;;11.14;70.57;99508.61;1686444;85;20981;-76
2022/05/08 02:32:57;;;;;;;14.80;6.67;;;;;;;11.10;73.24;99507.38;1686067;85;21028;-76
2022/05/08 02:35:24;;;;;;;15.00;7.42;;;;;;;11.06;71.18;99500.11;1686257;85;21607;-75
2022/05/08 02:37:54;;;;;;;11.03;6.90;;;;;;;11.01;70.60;99504.54;1685946;85;20989;-75
2022/05/08 02:40:22;;;;;;;17.35;7.47;;;;;;;10.95;69.95;99501.61;1686481;85;21509;-75
2022/05/08 02:42:49;;;;;;;12.68;6.47;;;;;;;10.89;71.20;99506.09;1686148;85;21006;-75
2022/05/08 02:45:16;;;;;;;14.00;5.92;;;;;;;10.84;70.96;99510.52;1675030;84;20981;-75
2022/05/08 02:47:44;;;;;;;12.60;6.72;;;;;;;10.80;72.23;99511.02;1689525;84;20983;-75
2022/05/08 02:50:12;;;;;;;13.68;7.45;;;;;;;10.74;71.21;99508.11;1693603;84;21027;-76
2022/05/08 02:52:40;;;;;;;13.78;7.28;;;;;;;10.67;73.53;99506.50;1700030;84;21503;-75
2022/05/08 03:00:41;;;;;;;13.80;7.00;;;;;;;10.45;72.95;99511.69;1690796;84;20992;-75
2022/05/08 03:03:09;;;;;;;14.38;6.83;;;;;;;10.40;71.29;99514.34;1686082;85;21045;-75
2022/05/08 03:05:36;;;;;;;15.65;7.17;;;;;;;10.36;72.52;99516.59;1679336;84;21552;-75
2022/05/08 03:08:07;;;;;;;11.25;6.55;;;;;;;10.32;72.56;99513.63;1683693;84;21031;-75
2022/05/08 03:13:19;;;;;;;17.90;6.67;;;;;;;10.28;71.01;99521.03;1683456;84;21502;-75
2022/05/08 03:15:47;;;;;;;11.33;5.67;;;;;;;10.18;71.55;99517.73;1695561;83;21041;-75
2022/05/08 03:18:16;;;;;;;13.40;6.28;;;;;;;10.14;72.71;99527.31;1686094;85;21049;-77
2022/05/08 03:20:45;;;;;;;15.23;6.30;;;;;;;10.16;73.14;99526.84;1674222;85;20998;-74
2022/05/08 03:23:11;;;;;;;12.33;6.00;;;;;;;10.20;73.10;99535.90;1716744;83;21005;-75
2022/05/08 03:25:38;;;;;;;12.23;6.28;;;;;;;10.23;73.49;99535.86;1702860;83;20970;-76
2022/05/08 03:28:05;;;;;;;14.95;6.28;;;;;;;10.21;73.74;99533.73;1719609;82;21516;-76
2022/05/08 03:30:31;;;;;;;13.65;7.08;;;;;;;10.16;74.05;99541.58;1709003;83;21619;-75
2022/05/08 03:32:58;;;;;;;15.35;6.97;;;;;;;10.11;73.11;99535.17;1718593;83;21053;-77
2022/05/08 03:35:25;;;;;;;11.30;6.35;;;;;;;10.06;73.52;99544.77;1713559;83;21040;-75
2022/05/08 03:37:52;;;;;;;11.00;6.50;;;;;;;9.99;74.01;99548.77;1713874;83;20977;-75
2022/05/08 03:40:19;;;;;;;12.25;6.40;;;;;;;9.93;74.74;99537.63;1711209;83;21496;-75
2022/05/08 03:42:45;;;;;;;13.30;6.20;;;;;;;9.92;73.81;99548.88;1701570;83;21048;-79
2022/05/08 03:45:13;;;;;;;10.53;6.28;;;;;;;9.94;73.41;99550.16;1715184;83;21001;-75
2022/05/08 03:47:39;;;;;;;11.53;6.78;;;;;;;10.01;72.94;99556.98;1720556;83;20985;-75
2022/05/08 03:50:08;;;;;;;10.15;5.85;;;;;;;10.05;73.62;99559.95;1718390;83;21056;-75
2022/05/08 03:52:34;;;;;;;11.88;5.92;;;;;;;10.11;72.90;99556.41;1710296;83;21508;-75
2022/05/08 03:55:02;;;;;;;14.80;6.90;;;;;;;10.11;72.93;99558.55;1713290;83;20978;-75
2022/05/08 03:57:29;;;;;;;12.63;6.22;;;;;;;10.13;72.42;99558.09;1702150;84;21017;-76
2022/05/08 03:59:55;;;;;;;15.08;6.45;;;;;;;10.16;72.75;99564.52;1687203;84;21102;-75
2022/05/08 04:02:22;;;;;;;14.95;7.30;;;;;;;10.24;73.54;99567.00;1691460;85;21035;-75
2022/05/08 04:04:48;;;;;;;10.00;5.40;;;;;;;10.30;73.08;99567.37;1706404;84;20998;-75
2022/05/08 04:07:17;;;;;;;11.83;5.55;;;;;;;10.32;72.89;99570.36;1705175;84;21098;-75
2022/05/08 04:09:47;;;;;;;12.35;5.37;;;;;;;10.37;72.17;99567.70;1678638;84;21064;-76
2022/05/08 04:12:14;;;;;;;11.63;5.30;;;;;;;10.45;72.25;99571.03;1696527;84;21008;-76
2022/05/08 04:14:40;;;;;;;10.45;6.22;;;;;;;10.53;71.75;99570.45;1698561;84;21495;-75
2022/05/08 04:17:07;;;;;;;14.07;5.62;;;;;;;10.66;71.94;99568.93;1689983;84;21048;-76
2022/05/08 04:19:33;;;;;;;13.45;6.58;;;;;;;10.79;71.68;99571.73;1699733;83;21070;-77
2022/05/08 04:24:45;;;;;;;12.28;6.67;;;;;;;11.11;72.02;99578.06;1698840;84;21031;-75
2022/05/08 04:27:12;;;;;;;13.05;7.12;;;;;;;11.27;71.57;99579.92;1704417;83;20964;-75
2022/05/08 04:29:38;;;;;;;13.88;7.67;;;;;;;11.41;71.18;99578.34;1696396;84;21013;-76
2022/05/08 04:32:05;;;;;;;16.77;7.37;;;;;;;11.54;71.30;99579.81;1684614;85;21089;-76
2022/05/08 04:34:32;;;;;;;12.13;6.72;;;;;;;11.67;71.34;99581.23;1693855;84;21002;-75
2022/05/08 04:36:58;;;;;;;12.60;6.17;;;;;;;11.81;70.76;99583.99;1684866;85;21005;-75
2022/05/08 04:39:24;;;;;;;11.55;6.08;;;;;;;11.91;70.28;99586.83;1684377;85;21121;-75
2022/05/08 04:41:52;;;;;;;13.38;6.30;;;;;;;11.99;69.46;99578.39;1697400;84;21011;-76
2022/05/08 04:44:19;;;;;;;11.95;6.22;;;;;;;12.08;69.23;99583.39;1684331;85;21051;-76
2022/05/08 04:46:46;;;;;;;12.90;6.47;;;;;;;12.18;68.94;99585.80;1700416;84;20948;-75
2022/05/08 04:49:12;;;;;;;11.40;6.17;;;;;;;12.26;68.51;99587.31;1697224;84;21561;-76
2022/05/08 04:51:39;;;;;;;16.45;6.55;;;;;;;12.36;67.98;99585.34;1700861;83;20976;-75
2022/05/08 04:54:05;;;;;;;10.38;6.33;;;;;;;12.41;67.58;99591.73;1684373;85;21017;-76
2022/05/08 04:56:32;;;;;;;14.10;6.17;;;;;;;12.48;66.97;99593.31;1690974;84;21510;-77
2022/05/08 04:58:58;;;;;;;14.30;6.45;;;;;;;12.44;66.71;99593.83;1681194;85;21061;-76
2022/05/08 05:01:25;;;;;;;12.15;6.55;;;;;;;12.43;66.86;99600.38;1686436;84;20983;-75
2022/05/08 05:03:53;;;;;;;12.43;6.90;;;;;;;12.47;66.92;99600.29;1700620;84;21467;-75
2022/05/08 05:06:19;;;;;;;13.28;6.15;;;;;;;12.52;66.47;99605.37;1684677;85;21489;-76
2022/05/08 05:08:45;;;;;;;12.40;6.80;;;;;;;12.57;65.87;99600.03;1684619;85;21105;-76
2022/05/08 05:11:12;;;;;;;16.32;7.62;;;;;;;12.64;65.61;99599.00;1699277;84;20971;-78
2022/05/08 05:13:39;;;;;;;12.90;7.15;;;;;;;12.72;64.87;99593.13;1700855;84;21538;-75
2022/05/08 05:16:06;;;;;;;12.65;6.78;;;;;;;12.67;63.05;99597.17;1699008;84;20969;-76
2022/05/08 05:18:33;;;;;;;12.20;6.40;;;;;;;12.67;64.06;99601.52;1701050;84;20999;-76
2022/05/08 05:20:59;;;;;;;10.43;5.35;;;;;;;12.71;63.54;99601.42;1700503;84;21476;-76
2022/05/08 05:23:26;;;;;;;11.10;5.40;;;;;;;12.79;63.65;99596.43;1684803;85;21037;-76
2022/05/08 05:25:52;;;;;;;13.18;5.22;;;;;;;12.86;62.86;99600.60;1681785;84;21004;-77
2022/05/08 05:28:19;;;;;;;10.90;5.78;;;;;;;12.98;62.68;99605.49;1688763;84;21496;-76
2022/05/08 05:30:45;;;;;;;12.45;5.85;;;;;;;13.03;62.69;99609.27;1700655;84;20963;-78
2022/05/08 05:33:15;;;;;;;17.23;5.70;;;;;;;13.07;62.47;99605.68;1695157;84;20999;-76
2022/05/08 05:35:40;;;;;;;12.03;5.62;;;;;;;13.09;62.57;99609.10;1684425;85;20980;-77
2022/05/08 05:38:08;;;;;;;12.63;6.28;;;;;;;13.09;61.92;99615.62;1696332;84;21013;-75
2022/05/08 05:40:34;;;;;;;11.22;5.00;;;;;;;13.21;62.36;99607.91;1698365;84;20965;-76
2022/05/08 05:43:01;;;;;;;10.58;5.30;;;;;;;13.31;61.95;99615.50;1699580;84;21498;-75
2022/05/08 05:45:28;;;;;;;12.85;4.65;;;;;;;13.44;61.61;99615.15;1701103;84;20963;-75
2022/05/08 05:47:54;;;;;;;8.98;4.92;;;;;;;13.49;61.24;99615.88;1693512;84;21037;-75
2022/05/08 05:50:24;;;;;;;13.60;4.95;;;;;;;13.57;60.69;99611.30;1700907;84;20983;-75
2022/05/08 05:52:52;;;;;;;10.15;4.87;;;;;;;13.57;59.68;99606.50;1684287;85;21014;-76
2022/05/08 05:55:20;;;;;;;8.10;4.75;;;;;;;13.70;60.57;99611.31;1684691;85;21030;-75
2022/05/08 05:57:47;;;;;;;13.75;5.17;;;;;;;13.78;60.51;99607.17;1697066;84;20980;-75
2022/05/08 06:00:17;;;;;;;8.53;4.70;;;;;;;13.85;60.24;99614.40;1683251;84;21581;-75
2022/05/08 06:02:46;;;;;;;9.10;4.90;;;;;;;13.97;59.56;99607.48;1685806;85;21044;-76
2022/05/08 06:05:14;;;;;;;10.95;4.97;;;;;;;14.07;59.86;99608.91;1701075;84;21466;-75
2022/05/08 06:07:42;;;;;;;13.60;5.20;;;;;;;14.25;59.73;99606.63;1687812;84;21561;-74
2022/05/08 06:10:11;;;;;;;8.05;4.87;;;;;;;14.37;59.03;99608.83;1694311;84;21455;-76
2022/05/08 06:12:38;;;;;;;13.15;4.70;;;;;;;14.51;57.38;99615.77;1684925;84;21029;-76
2022/05/08 06:15:08;;;;;;;10.23;4.33;;;;;;;14.63;57.79;99612.39;1700936;83;21479;-74
2022/05/08 06:17:33;;;;;;;10.88;5.00;;;;;;;14.74;54.92;99612.02;1700761;84;21002;-75
2022/05/08 06:20:00;;;;;;;11.55;5.10;;;;;;;14.87;57.06;99610.23;1697389;84;21022;-75
2022/05/08 06:22:26;;;;;;;15.43;4.95;;;;;;;14.94;56.63;99608.71;1697182;84;20969;-75
2022/05/08 06:24:53;;;;;;;10.53;4.15;;;;;;;15.09;55.60;99612.11;1701029;84;21047;-76
2022/05/08 06:27:19;;;;;;;11.57;4.25;;;;;;;15.19;55.37;99606.94;1700829;84;20986;-76
2022/05/08 06:29:46;;;;;;;9.63;4.12;;;;;;;15.37;55.47;99607.19;1684357;85;21052;-75
2022/05/08 06:32:12;;;;;;;8.80;4.40;;;;;;;15.47;54.63;99608.56;1684699;85;21069;-75
2022/05/08 06:34:40;;;;;;;9.88;4.37;;;;;;;15.56;51.16;99613.91;1684424;84;21053;-76
2022/05/08 06:37:07;;;;;;;12.20;4.60;;;;;;;15.63;51.30;99612.31;1700893;84;20956;-76
2022/05/08 06:39:34;;;;;;;9.03;4.25;;;;;;;15.74;53.34;99611.95;1700460;84;21007;-76
2022/05/08 06:42:00;;;;;;;10.63;3.92;;;;;;;15.83;50.18;99611.58;1695091;84;21011;-76
2022/05/08 06:44:29;;;;;;;11.18;4.12;;;;;;;15.96;51.87;99601.95;1700420;84;21015;-75
2022/05/08 06:46:56;;;;;;;12.25;4.12;;;;;;;16.15;50.90;99599.45;1696079;84;21019;-75
2022/05/08 06:49:22;;;;;;;9.30;4.15;;;;;;;16.34;52.13;99600.41;1700522;84;21506;-76
2022/05/08 06:51:49;;;;;;;12.13;4.50;;;;;;;16.55;52.08;99603.06;1693708;84;20980;-75
2022/05/08 06:54:16;;;;;;;11.05;4.10;;;;;;;16.79;50.96;99594.18;1700536;84;21114;-75
2022/05/08 06:56:42;;;;;;;10.45;4.22;;;;;;;16.72;49.21;99599.28;1690729;84;21511;-76
2022/05/08 07:01:54;;;;;;;9.53;4.03;;;;;;;16.89;50.49;99594.64;1690200;84;21039;-77
2022/05/08 07:04:21;;;;;;;10.95;4.33;;;;;;;17.03;49.10;99596.67;1700987;84;21004;-77
2022/05/08 07:06:47;;;;;;;10.43;4.42;;;;;;;17.10;50.11;99600.75;1684247;85;21037;-76
2022/05/08 07:09:14;;;;;;;10.50;4.55;;;;;;;17.18;50.29;99597.32;1700838;84;21042;-76
2022/05/08 07:11:44;;;;;;;7.75;4.30;;;;;;;17.25;49.66;99592.20;1684341;85;21033;-76
2022/05/08 07:14:11;;;;;;;7.55;3.80;;;;;;;17.32;48.27;99590.60;1665149;84;21002;-76
2022/05/08 07:16:38;;;;;;;8.63;3.77;;;;;;;17.44;49.42;99596.61;1684463;84;20969;-76
2022/05/08 07:19:05;;;;;;;18.85;4.67;;;;;;;17.43;49.11;99603.66;1708238;84;21000;-76
2022/05/08 07:21:32;;;;;;;7.15;4.47;;;;;;;17.54;49.14;99601.84;1684202;84;21025;-77
2022/05/08 07:23:58;;;;;;;8.73;3.90;;;;;;;17.61;47.66;99601.12;1700919;84;20999;-76
2022/05/08 07:26:24;;;;;;;13.60;4.30;;;;;;;17.72;47.79;99597.51;1684280;85;20992;-78
2022/05/08 07:28:51;;;;;;;12.45;4.40;;;;;;;17.79;48.97;99600.73;1687982;83;21520;-75
2022/05/08 07:31:18;;;;;;;8.95;4.15;;;;;;;17.88;48.29;99601.62;1689960;85;20989;-77
2022/05/08 07:33:45;;;;;;;10.93;4.87;;;;;;;17.95;48.46;99603.52;1701537;84;21521;-76
2022/05/08 07:36:14;;;;;;;13.30;3.98;;;;;;;17.98;48.22;99608.62;1700822;84;20943;-76
2022/05/08 07:38:43;;;;;;;8.68;4.08;;;;;;;17.92;47.72;99612.39;1703601;84;21045;-75
2022/05/08 07:41:14;;;;;;;9.35;4.33;;;;;;;17.94;46.75;99611.01;1711120;83;20969;-77
2022/05/08 07:43:45;;;;;;;9.75;4.37;;;;;;;17.97;47.31;99605.62;1687995;85;21013;-77
2022/05/08 07:46:13;;;;;;;10.43;4.50;;;;;;;18.06;47.92;99598.14;1689979;85;20977;-77
2022/05/08 07:48:40;;;;;;;9.90;4.35;;;;;;;18.11;47.92;99595.28;1706095;84;21058;-75
2022/05/08 07:51:06;;;;;;;9.23;3.83;;;;;;;18.09;45.74;99601.08;1690120;85;21033;-76
2022/05/08 07:53:33;;;;;;;13.00;4.80;;;;;;;18.11;46.14;99598.38;1705987;84;21515;-76
2022/05/08 07:56:01;;;;;;;12.18;4.58;;;;;;;18.16;46.43;99592.42;1701486;84;21511;-77
2022/05/08 07:58:28;;;;;;;8.98;4.22;;;;;;;18.11;46.56;99597.06;1704879;84;21054;-76
2022/05/08 08:00:56;;;;;;;11.83;4.55;;;;;;;18.11;46.87;99601.02;1699784;84;21019;-76
2022/05/08 08:03:31;;;;;;;8.10;4.25;;;;;;;18.17;46.80;99599.40;1701434;83;20995;-77
2022/05/08 08:05:58;;;;;;;13.40;4.78;;;;;;;18.35;46.79;99598.49;1700469;84;21483;-78
2022/05/08 08:08:25;;;;;;;9.15;3.98;;;;;;;18.44;45.69;99598.05;1706096;83;21039;-78
2022/05/08 08:10:56;;;;;;;8.15;4.65;;;;;;;18.58;46.59;99601.76;1701747;83;21025;-77
2022/05/08 08:13:24;;;;;;;10.05;4.42;;;;;;;18.61;45.95;99597.20;1705873;84;21068;-78
2022/05/08 08:15:52;;;;;;;8.13;4.25;;;;;;;18.70;44.71;99591.92;1706291;83;20979;-78
2022/05/08 08:18:19;;;;;;;11.55;4.62;;;;;;;18.83;44.98;99595.67;1706264;83;21062;-76
2022/05/08 08:20:46;;;;;;;11.50;4.55;;;;;;;19.03;44.66;99592.48;1691155;85;20993;-77
2022/05/08 08:23:13;;;;;;;8.80;4.17;;;;;;;19.22;44.95;99585.32;1706187;84;21000;-76
2022/05/08 08:25:39;;;;;;;11.88;4.35;;;;;;;19.46;45.73;99590.22;1689795;85;20957;-76
2022/05/08 08:28:06;;;;;;;13.20;4.60;;;;;;;19.62;44.77;99587.13;1685779;84;21048;-77
2022/05/08 08:30:33;;;;;;;8.53;4.28;;;;;;;19.82;45.46;99579.47;1689039;84;21000;-77
2022/05/08 08:33:00;;;;;;;12.28;4.90;;;;;;;20.10;45.07;99583.20;1697115;84;21492;-77
2022/05/08 08:35:29;;;;;;;8.10;4.00;;;;;;;20.32;44.92;99581.50;1690728;83;20970;-78
2022/05/08 08:37:55;;;;;;;8.90;4.10;;;;;;;20.52;44.16;99584.30;1678870;84;21532;-78
2022/05/08 08:40:22;;;;;;;8.58;4.35;;;;;;;20.67;44.54;99578.61;1693704;84;20956;-77
2022/05/08 08:42:50;;;;;;;7.75;4.20;;;;;;;20.81;44.19;99577.34;1682005;83;20973;-77
2022/05/08 08:48:09;;;;;;;11.78;4.47;;;;;;;21.23;43.91;99574.35;1682563;83;21057;-77
2022/05/08 08:50:35;;;;;;;;;;;;;;;21.28;43.28;99573.22;1699285;83;20976;-76
2022/05/08 08:53:06;;;;;;;11.57;4.47;;;;;;;21.31;42.27;99576.53;1685180;83;20135;-79
2022/05/08 08:55:33;;;;;;;8.93;4.37;;;;;;;21.32;42.78;99574.73;1696683;84;20968;-79
2022/05/08 08:58:00;;;;;;;10.98;4.65;;;;;;;21.52;42.90;99573.03;1689239;83;20989;-78
2022/05/08 09:00:27;;;;;;;9.33;4.70;;;;;;;21.72;42.78;99573.58;1682493;84;21471;-77
2022/05/08 09:02:55;;;;;;;9.15;4.15;;;;;;;21.92;42.54;99563.88;1693097;84;20953;-78
2022/05/08 09:05:24;;;;;;;10.23;5.05;;;;;;;22.06;41.64;99565.63;1669287;84;20959;-77
2022/05/08 09:07:53;;;;;;;8.75;4.00;;;;;;;22.19;41.68;99570.98;1695829;84;20975;-77
2022/05/08 09:10:28;;;;;;;7.58;4.03;;;;;;;22.12;40.25;99561.73;1685745;84;21024;-79
2022/05/08 09:13:02;;;;;;;8.65;4.20;;;;;;;22.12;40.26;99565.70;1696861;84;21040;-77
2022/05/08 09:15:34;;;;;;;7.72;4.33;;;;;;;22.13;41.04;99562.12;1669830;83;20971;-77
2022/05/08 09:18:05;;;;;;;6.70;4.00;;;;;;;22.21;41.41;99559.33;1695679;84;21000;-77
2022/05/08 09:20:51;;;;;;;8.40;4.08;;;;;;;22.37;41.47;99557.88;1688600;83;20984;-77
2022/05/08 09:23:18;;;;;;;8.78;4.55;;;;;;;22.39;41.36;99551.16;1689572;83;20973;-76
2022/05/08 09:26:03;;;;;;;8.08;4.33;;;;;;;22.49;41.05;99554.88;1693416;84;21519;-77
2022/05/08 09:28:30;;;;;;;8.35;4.25;;;;;;;22.58;41.55;99554.73;1691380;84;21021;-77
2022/05/08 09:31:03;;;;;;;7.55;4.20;;;;;;;22.77;41.27;99555.66;1751207;82;20975;-77
2022/05/08 09:33:40;;;;;;;8.70;3.85;;;;;;;22.98;41.25;99546.24;1754644;81;20960;-78
2022/05/08 09:36:10;;;;;;;10.20;3.83;;;;;;;23.09;40.80;99546.00;1755762;82;21091;-77
2022/05/08 09:38:57;;;;;;;5.75;3.05;;;;;;;23.07;40.01;99553.22;1755301;81;20976;-78
2022/05/08 09:41:32;;;;;;;7.05;4.22;;;;;;;23.19;39.83;99545.72;1755771;81;21019;-77
2022/05/08 09:44:17;;;;;;;8.43;4.30;;;;;;;23.30;39.56;99543.63;1748866;82;20916;-77
2022/05/08 09:46:48;;;;;;;14.60;4.37;;;;;;;23.36;39.34;99547.20;1735890;81;20956;-76
2022/05/08 09:49:24;;;;;;;8.80;4.17;;;;;;;23.28;39.38;99536.25;1752238;81;20956;-77
2022/05/08 09:51:52;;;;;;;6.70;4.05;;;;;;;23.33;39.15;99540.77;1737787;82;21535;-76
2022/05/08 09:54:19;;;;;;;8.08;4.37;;;;;;;23.36;39.05;99531.28;1755701;82;20995;-76
2022/05/08 09:56:47;;;;;;;8.45;4.37;;;;;;;23.47;38.75;99535.80;1740060;81;20924;-76
2022/05/08 09:59:15;;;;;;;7.90;3.90;;;;;;;23.42;39.28;99532.16;1752705;81;21059;-76
2022/05/08 10:01:42;;;;;;;8.85;4.40;;;;;;;23.52;39.03;99533.20;1743204;81;20956;-74
2022/05/08 10:04:10;;;;;;;9.00;4.30;;;;;;;23.58;39.10;99523.47;1744625;82;20975;-77
2022/05/08 10:06:39;;;;;;;9.43;4.20;;;;;;;23.72;38.66;99512.33;1745616;82;21535;-75
2022/05/08 10:14:37;;;;;;;9.05;4.15;;;;;;;24.06;38.22;99511.20;1753837;82;20980;-76
2022/05/08 10:17:05;;;;;;;8.50;4.17;;;;;;;24.27;38.13;99510.90;1747011;82;20948;-76
2022/05/08 10:19:37;;;;;;;8.55;4.22;;;;;;;24.55;38.38;99511.03;1751667;82;21004;-78
2022/05/08 10:22:12;;;;;;;7.15;4.00;;;;;;;24.85;35.71;99507.43;1749256;82;20991;-76
2022/05/08 10:24:51;;;;;;;8.35;4.17;;;;;;;25.10;36.80;99504.55;1751951;82;20981;-76
2022/05/08 10:27:31;;;;;;;10.13;4.42;;;;;;;25.32;37.08;99506.37;1750684;81;21471;-76
2022/05/08 10:30:03;;;;;;;8.15;4.25;;;;;;;25.48;36.66;99498.00;1753924;80;21553;-76
2022/05/08 10:32:35;;;;;;;7.20;4.22;;;;;;;25.64;36.36;99498.09;1742114;82;20972;-76
2022/05/08 10:35:17;;;;;;;9.73;4.70;;;;;;;25.80;34.91;99488.75;1754885;82;21046;-78
2022/05/08 10:37:52;;;;;;;7.25;4.17;;;;;;;25.94;36.37;99490.30;1754790;82;20948;-77
2022/05/08 10:40:28;;;;;;;7.90;4.25;;;;;;;25.93;35.38;99491.27;1751531;82;20964;-75
2022/05/08 10:42:58;;;;;;;11.38;4.47;;;;;;;25.84;33.56;99492.47;1742421;82;20952;-76
2022/05/08 10:45:38;;;;;;;8.28;4.15;;;;;;;25.84;33.97;99485.81;1754768;82;20948;-76
2022/05/08 10:48:14;;;;;;;8.28;3.92;;;;;;;25.64;33.77;99483.45;1742198;81;21027;-77
2022/05/08 10:50:51;;;;;;;8.48;4.03;;;;;;;25.57;33.76;99479.97;1749549;81;20996;-75
2022/05/08 10:53:34;;;;;;;7.75;4.22;;;;;;;25.44;33.40;99475.27;1751095;82;21048;-75
2022/05/08 10:56:08;;;;;;;9.48;4.28;;;;;;;25.44;33.79;99466.45;1726452;82;21008;-74
2022/05/08 10:58:38;;;;;;;6.70;3.75;;;;;;;25.67;32.61;99469.91;1746475;82;21527;-75
2022/05/08 11:01:09;;;;;;;5.28;3.58;;;;;;;25.57;31.99;99462.66;1733710;82;20964;-75
2022/05/08 11:03:36;;;;;;;6.62;3.72;;;;;;;25.69;32.72;99460.81;1705009;82;20972;-75
2022/05/08 11:06:05;;;;;;;7.90;3.92;;;;;;;25.68;32.21;99456.94;1754645;81;21487;-75
2022/05/08 11:08:35;;;;;;;10.90;4.15;;;;;;;25.76;31.20;99455.33;1748434;82;20996;-74
2022/05/08 11:11:10;;;;;;;7.03;3.58;;;;;;;25.72;31.62;99447.72;1736657;82;20946;-76
2022/05/08 11:13:49;;;;;;;8.23;4.03;;;;;;;25.73;30.58;99452.09;1745148;82;20949;-75
2022/05/08 11:16:41;;;;;;;8.45;4.00;;;;;;;25.63;30.98;99443.18;1738265;82;20968;-76
2022/05/08 11:19:07;;;;;;;9.35;4.42;;;;;;;25.77;31.45;99446.38;1754069;82;21538;-76
2022/05/08 11:21:35;;;;;;;7.60;3.83;;;;;;;25.77;31.22;99439.72;1750070;82;21712;-75
2022/05/08 11:24:03;;;;;;;7.50;3.67;;;;;;;25.97;30.80;99433.26;1754421;81;21028;-75
2022/05/08 11:26:34;;;;;;;9.58;3.72;;;;;;;26.12;31.42;99432.44;1741886;82;21043;-78
2022/05/08 11:29:02;;;;;;;9.05;3.67;;;;;;;26.18;30.20;99427.92;1753938;81;21016;-75
2022/05/08 11:31:32;;;;;;;7.37;4.00;;;;;;;26.26;31.11;99423.27;1740842;81;20968;-76
2022/05/08 11:36:44;;;;;;;9.13;4.05;;;;;;;26.13;28.90;99423.48;1741479;82;20980;-76
2022/05/08 11:39:14;;;;;;;8.43;3.62;;;;;;;26.25;29.87;99420.27;1752183;81;21031;-75
2022/05/08 11:41:44;;;;;;;8.55;4.40;;;;;;;26.37;28.41;99410.72;1752441;82;20988;-75
2022/05/08 11:44:20;;;;;;;7.22;3.40;;;;;;;26.58;30.08;99412.53;1752131;82;20949;-76
2022/05/08 11:46:54;;;;;;;7.80;3.87;;;;;;;26.65;27.90;99412.37;1734027;82;20963;-75
2022/05/08 11:49:31;;;;;;;7.58;3.60;;;;;;;26.63;29.50;99411.66;1738192;82;21575;-76
2022/05/08 11:52:01;;;;;;;9.23;4.15;;;;;;;26.81;29.25;99415.88;1736950;82;20967;-76
2022/05/08 11:54:35;;;;;;;7.33;3.30;;;;;;;26.83;28.93;99406.41;1742944;82;21428;-76
2022/05/08 11:57:21;;;;;;;15.48;3.47;;;;;;;26.89;29.26;99403.20;1752578;81;20961;-75
2022/05/08 12:00:04;;;;;;;8.13;3.83;;;;;;;27.14;28.17;99408.55;1741576;82;21095;-76
2022/05/08 12:02:48;;;;;;;8.95;4.00;;;;;;;27.10;26.89;99405.30;1739643;81;21482;-76